LFBE/EGC METAR and TAF weather

Enter ICAO airport designator
Station Type Date Time Source
LFBE METAR 2022/01/28 00:00 UTC NOAA

LFBE 280000Z AUTO VRB03KT 6000 OVC005 M02/M02 Q1035


Station Type Date Time Source
LFBE Decoded METAR 2022/01/28 00:00 UTC NOAA

Bergerac, France (LFBE) 44-49N 000-31E 52M
Jan 27, 2022 - 07:00 PM EST / 2022.01.28 0000 UTC
Wind: Variable at 3 MPH (3 KT):0
Visibility: 3 mile(s):0
Sky conditions: overcast
Temperature: 28 F (-2 C)
Dew Point: 28 F (-2 C)
Relative Humidity: 100%
Pressure (altimeter): 30.56 in. Hg (1035 hPa)
ob: LFBE 280000Z AUTO VRB03KT 6000 OVC005 M02/M02 Q1035
cycle: 0

Station Type Date Time Source
LFBE TAF 2022/01/27 20:14 UTC NOAA

TAF LFBE 272059Z 2720/2818 CNL

Example: see airport list